Time;durP1;ratioP1;P1;durP2;ratioP2;P2;SDS_P1;SDS_P2;PMS_P1;PMS_P2;Temp;Humidity;BMP_temperature;BMP_pressure;BME280_temperature;BME280_humidity;BME280_pressure;Samples;Min_cycle;Max_cycle;Signal;HPM_P1;HPM_P2
2022/12/01 00:02:04;;;;;;;4.83;4.47;;;;;;;3.06;100.00;101370.38;5072328;28;20179;-76
2022/12/01 00:04:29;;;;;;;1.43;1.43;;;;;;;3.08;100.00;101368.25;5072022;28;20653;-75
2022/12/01 00:06:55;;;;;;;2.20;2.13;;;;;;;3.06;100.00;101368.50;5072589;28;20206;-76
2022/12/01 00:12:04;;;;;;;1.37;1.37;;;;;;;3.06;100.00;101370.38;5072246;28;20227;-76
2022/12/01 00:14:30;;;;;;;8.90;4.73;;;;;;;3.02;100.00;101366.50;5072362;28;20217;-77
2022/12/01 00:16:56;;;;;;;3.20;2.73;;;;;;;3.01;100.00;101371.06;5072017;28;20637;-77
2022/12/01 00:19:25;;;;;;;6.97;6.33;;;;;;;3.02;100.00;101371.91;5071995;28;20558;-79
2022/12/01 00:21:50;;;;;;;8.13;6.73;;;;;;;2.99;100.00;101382.13;5072016;28;20255;-76
2022/12/01 00:24:15;;;;;;;6.70;5.63;;;;;;;3.01;100.00;101375.66;5071578;28;20224;-76
2022/12/01 00:26:41;;;;;;;13.77;11.27;;;;;;;2.98;100.00;101374.25;5071075;28;20214;-77
2022/12/01 00:29:06;;;;;;;19.17;4.77;;;;;;;2.98;100.00;101375.09;5071745;28;20185;-77
2022/12/01 00:31:31;;;;;;;7.20;6.53;;;;;;;2.98;100.00;101371.56;5072078;28;20535;-77
2022/12/01 00:33:57;;;;;;;7.17;6.60;;;;;;;3.01;100.00;101373.78;5071479;28;20178;-76
2022/12/01 00:36:23;;;;;;;15.23;13.60;;;;;;;2.96;100.00;101371.81;5071673;28;20170;-77
2022/12/01 00:38:53;;;;;;;4.77;4.20;;;;;;;2.96;100.00;101385.28;5071668;28;20178;-77
2022/12/01 00:41:19;;;;;;;6.03;5.20;;;;;;;2.93;100.00;101372.28;5071631;28;20663;-77
2022/12/01 00:43:45;;;;;;;4.43;4.07;;;;;;;2.92;100.00;101370.66;5053607;28;20200;-75
2022/12/01 00:46:10;;;;;;;9.53;5.17;;;;;;;2.94;100.00;101373.94;5071337;28;20665;-77
2022/12/01 00:48:36;;;;;;;0.40;0.40;;;;;;;2.93;100.00;101380.38;5071395;28;20182;-76
2022/12/01 00:51:02;;;;;;;4.13;3.80;;;;;;;2.89;100.00;101384.63;5071330;28;20207;-76
2022/12/01 00:53:27;;;;;;;11.00;8.17;;;;;;;2.89;100.00;101387.31;5071140;28;20178;-78
2022/12/01 00:55:52;;;;;;;27.07;4.53;;;;;;;2.89;100.00;101386.47;5071305;28;20182;-77
2022/12/01 00:58:18;;;;;;;17.33;5.90;;;;;;;2.84;100.00;101384.50;5071639;28;20182;-76
2022/12/01 01:00:43;;;;;;;4.03;2.97;;;;;;;2.86;100.00;101386.94;5071314;28;20679;-77
2022/12/01 01:03:10;;;;;;;3.97;3.50;;;;;;;2.85;100.00;101391.53;5071017;28;20673;-76
2022/12/01 01:05:39;;;;;;;27.50;13.20;;;;;;;2.76;100.00;101386.75;5070897;28;20728;-78
2022/12/01 01:08:07;;;;;;;12.00;4.80;;;;;;;2.76;100.00;101390.28;5071203;28;20174;-77
2022/12/01 01:10:32;;;;;;;10.57;7.77;;;;;;;2.72;100.00;101399.06;5071070;28;20255;-76
2022/12/01 01:12:57;;;;;;;3.33;2.47;;;;;;;2.71;100.00;101392.00;5070657;28;20644;-75
2022/12/01 01:15:23;;;;;;;6.17;4.33;;;;;;;2.69;100.00;101403.03;5071348;28;20174;-76
2022/12/01 01:17:48;;;;;;;6.10;5.80;;;;;;;2.71;100.00;101400.09;5071620;28;20194;-76
2022/12/01 01:20:14;;;;;;;19.03;7.43;;;;;;;2.66;100.00;101407.03;5070878;28;20663;-76
2022/12/01 01:22:39;;;;;;;20.93;11.63;;;;;;;2.64;100.00;101405.63;5070927;28;20225;-77
2022/12/01 01:25:05;;;;;;;6.37;5.77;;;;;;;2.64;100.00;101413.72;5070691;28;20182;-77
2022/12/01 01:27:30;;;;;;;56.97;21.10;;;;;;;2.61;100.00;101403.41;5071080;28;20219;-78
2022/12/01 01:29:55;;;;;;;2.67;2.47;;;;;;;2.57;100.00;101408.44;5070712;28;20385;-77
2022/12/01 01:32:20;;;;;;;3.30;3.20;;;;;;;2.60;100.00;101410.69;5070862;28;20178;-76
2022/12/01 01:34:46;;;;;;;12.30;11.10;;;;;;;2.55;100.00;101407.84;5070686;28;20323;-77
2022/12/01 01:37:11;;;;;;;63.17;15.37;;;;;;;2.53;100.00;101417.25;5070885;28;20174;-76
2022/12/01 01:39:36;;;;;;;6.63;6.23;;;;;;;2.54;100.00;101416.19;5070971;28;20178;-76
2022/12/01 01:42:02;;;;;;;9.27;8.30;;;;;;;2.46;100.00;101416.50;5070745;28;20182;-77
2022/12/01 01:44:49;;;;;;;6.53;5.57;;;;;;;2.42;100.00;101415.34;5070945;28;20182;-75
2022/12/01 01:47:19;;;;;;;11.63;6.37;;;;;;;2.37;100.00;101422.28;5070612;28;20221;-75
2022/12/01 01:49:45;;;;;;;12.83;5.53;;;;;;;2.29;100.00;101419.09;5070860;28;20166;-77
2022/12/01 01:52:11;;;;;;;19.70;7.77;;;;;;;2.25;100.00;101415.22;5070591;28;20625;-77
2022/12/01 01:54:43;;;;;;;19.80;10.73;;;;;;;2.21;100.00;101414.88;5052212;28;20177;-75
2022/12/01 01:57:12;;;;;;;22.23;8.90;;;;;;;2.11;100.00;101411.09;5070272;28;20626;-78
2022/12/01 01:59:42;;;;;;;45.43;10.90;;;;;;;2.04;100.00;101406.63;5070305;28;20325;-76
2022/12/01 02:02:10;;;;;;;8.07;4.80;;;;;;;2.08;100.00;101409.69;5070596;28;20537;-76
2022/12/01 02:04:45;;;;;;;14.63;11.30;;;;;;;2.06;100.00;101411.78;5070331;28;20186;-75
2022/12/01 02:07:12;;;;;;;20.53;7.27;;;;;;;2.00;100.00;101407.31;5070342;28;20252;-77
2022/12/01 02:09:37;;;;;;;25.27;12.80;;;;;;;1.91;100.00;101417.59;5070663;28;20178;-75
2022/12/01 02:12:05;;;;;;;11.83;5.53;;;;;;;1.87;100.00;101412.88;5070413;28;20181;-76
2022/12/01 02:15:12;;;;;;;13.13;5.10;;;;;;;1.93;100.00;101412.81;5070575;28;20257;-76
2022/12/01 02:17:40;;;;;;;14.80;6.10;;;;;;;1.82;100.00;101415.47;5070372;28;20174;-76
2022/12/01 02:20:14;;;;;;;15.40;3.43;;;;;;;1.82;100.00;101415.47;5070244;28;20178;-76
2022/12/01 02:22:53;;;;;;;26.50;12.40;;;;;;;1.84;100.00;101416.88;5070199;28;20177;-76
2022/12/01 02:25:27;;;;;;;1.90;1.80;;;;;;;1.82;100.00;101421.66;5070358;28;20182;-76
2022/12/01 02:28:07;;;;;;;24.60;7.77;;;;;;;1.78;100.00;101415.94;5070383;28;20170;-76
2022/12/01 02:30:43;;;;;;;14.40;10.40;;;;;;;1.76;100.00;101417.22;5070233;28;20182;-77
2022/12/01 02:33:28;;;;;;;51.80;16.57;;;;;;;1.69;100.00;101417.28;5070131;28;20169;-76
2022/12/01 02:36:09;;;;;;;0.93;0.93;;;;;;;1.71;100.00;101425.13;5070183;28;20711;-76
2022/12/01 02:38:38;;;;;;;1.20;1.20;;;;;;;1.71;100.00;101419.75;5052159;28;20574;-76
2022/12/01 02:41:28;;;;;;;7.30;5.70;;;;;;;1.62;100.00;101421.97;5070146;28;20163;-76
2022/12/01 02:44:02;;;;;;;16.23;10.13;;;;;;;1.63;100.00;101420.91;5070110;28;20165;-75
2022/12/01 02:46:47;;;;;;;10.53;6.20;;;;;;;1.65;100.00;101418.81;5069909;28;20213;-76
2022/12/01 02:49:20;;;;;;;28.97;10.50;;;;;;;1.68;100.00;101423.72;5052888;28;20633;-76
2022/12/01 02:51:47;;;;;;;3.53;3.20;;;;;;;1.70;100.00;101420.81;5073949;28;20185;-76
2022/12/01 02:54:14;;;;;;;24.53;11.63;;;;;;;1.68;100.00;101423.72;5073566;28;20258;-75
2022/12/01 02:56:39;;;;;;;30.47;17.57;;;;;;;1.63;100.00;101415.53;5055451;28;20171;-76
2022/12/01 02:59:10;;;;;;;10.47;7.93;;;;;;;1.68;100.00;101420.22;5073902;28;20503;-76
2022/12/01 03:01:45;;;;;;;9.47;5.03;;;;;;;1.65;100.00;101429.56;5055773;28;20166;-75
2022/12/01 03:04:10;;;;;;;25.60;10.80;;;;;;;1.67;100.00;101421.25;5073451;28;20166;-75
2022/12/01 03:06:40;;;;;;;5.90;5.60;;;;;;;1.62;100.00;101421.97;5073367;28;20206;-76
2022/12/01 03:09:37;;;;;;;73.30;21.60;;;;;;;1.54;100.00;101421.44;5073425;28;20253;-76
2022/12/01 03:12:22;;;;;;;34.53;12.33;;;;;;;1.53;100.00;101426.00;5073343;28;20558;-75
2022/12/01 03:14:58;;;;;;;6.43;3.23;;;;;;;1.53;100.00;101420.63;5073007;28;20193;-76
2022/12/01 03:17:29;;;;;;;17.63;10.27;;;;;;;1.50;100.00;101423.78;5055229;28;20170;-76
2022/12/01 03:20:03;;;;;;;17.07;8.70;;;;;;;1.44;100.00;101424.66;5073547;28;20159;-77
2022/12/01 03:22:38;;;;;;;28.93;12.23;;;;;;;1.39;100.00;101419.16;5073305;28;20173;-76
2022/12/01 03:25:05;;;;;;;10.27;7.40;;;;;;;1.38;100.00;101422.88;5073075;28;20174;-76
2022/12/01 03:27:36;;;;;;;11.80;5.30;;;;;;;1.39;100.00;101427.22;5072801;28;20206;-76
2022/12/01 03:30:03;;;;;;;6.23;5.93;;;;;;;1.38;100.00;101426.41;5072585;28;20197;-76
2022/12/01 03:32:35;;;;;;;8.53;7.73;;;;;;;1.35;100.00;101426.84;5072731;28;20760;-76
2022/12/01 03:35:50;;;;;;;3.37;2.93;;;;;;;1.32;100.00;101418.41;5072792;28;20166;-76
2022/12/01 03:38:23;;;;;;;20.53;12.93;;;;;;;1.27;100.00;101420.94;4983183;28;20194;-76
2022/12/01 03:40:52;;;;;;;14.40;7.73;;;;;;;1.24;100.00;101426.78;5054511;28;21160;-77
2022/12/01 03:43:22;;;;;;;25.53;9.33;;;;;;;1.23;100.00;101427.84;5072587;28;20265;-75
2022/12/01 03:45:53;;;;;;;18.70;6.30;;;;;;;1.19;100.00;101433.69;5072308;28;20245;-77
2022/12/01 03:48:20;;;;;;;25.20;9.63;;;;;;;1.21;100.00;101429.94;5072540;28;20194;-76
2022/12/01 03:51:12;;;;;;;9.43;7.03;;;;;;;1.24;100.00;101426.78;5072549;28;20178;-76
2022/12/01 03:53:50;;;;;;;29.30;13.73;;;;;;;1.21;100.00;101428.06;5072154;28;20625;-76
2022/12/01 03:56:20;;;;;;;44.50;12.47;;;;;;;1.15;100.00;101428.94;5072212;28;20179;-76
2022/12/01 03:58:48;;;;;;;28.50;9.60;;;;;;;1.21;100.00;101430.75;5054434;28;20175;-77
2022/12/01 04:01:13;;;;;;;14.67;10.07;;;;;;;1.16;100.00;101434.13;5071193;28;20715;-76
2022/12/01 04:03:38;;;;;;;8.93;7.43;;;;;;;1.15;100.00;101437.84;5072028;28;20170;-75
2022/12/01 04:06:04;;;;;;;18.73;7.23;;;;;;;1.15;100.00;101440.53;5072173;28;20302;-76
2022/12/01 04:08:29;;;;;;;12.37;9.33;;;;;;;1.17;100.00;101433.09;5072206;28;20265;-77
2022/12/01 04:10:56;;;;;;;0.77;0.77;;;;;;;1.22;100.00;101440.47;5072111;28;20178;-75
2022/12/01 04:13:22;;;;;;;11.33;6.00;;;;;;;1.24;100.00;101432.16;5071747;28;20275;-76
2022/12/01 04:15:54;;;;;;;5.27;4.87;;;;;;;1.30;100.00;101439.34;5072564;28;20241;-77
2022/12/01 04:18:19;;;;;;;10.30;4.50;;;;;;;1.25;100.00;101437.31;5073077;28;20252;-77
2022/12/01 04:20:46;;;;;;;40.43;14.53;;;;;;;1.13;100.00;101439.94;5076271;28;20179;-78
2022/12/01 04:23:58;;;;;;;32.10;13.10;;;;;;;1.13;100.00;101431.88;5075617;28;20561;-78
2022/12/01 04:26:02;;;;;;;34.13;14.17;;;;;;;1.10;100.00;101442.25;5072886;28;20255;-77
2022/12/01 04:28:27;;;;;;;40.20;15.67;;;;;;;1.05;100.00;101437.56;5072762;28;20645;-78
2022/12/01 04:30:53;;;;;;;5.07;4.70;;;;;;;1.06;100.00;101430.31;5072232;28;20265;-77
2022/12/01 04:33:18;;;;;;;7.07;6.47;;;;;;;1.07;100.00;101437.34;5051671;28;20645;-77
2022/12/01 04:35:43;;;;;;;4.03;3.80;;;;;;;1.06;100.00;101439.22;5051630;28;20179;-77
2022/12/01 04:38:08;;;;;;;14.03;11.07;;;;;;;1.04;100.00;101437.78;5051825;28;20247;-77
2022/12/01 04:40:34;;;;;;;6.70;3.83;;;;;;;1.08;100.00;101444.34;5051528;28;20630;-77
2022/12/01 04:42:59;;;;;;;27.80;13.57;;;;;;;1.06;100.00;101449.97;5051778;28;20254;-76
2022/12/01 04:45:24;;;;;;;11.13;4.37;;;;;;;1.08;100.00;101444.34;5051532;28;20179;-77
2022/12/01 04:47:52;;;;;;;2.87;2.67;;;;;;;1.11;100.00;101435.84;5051555;28;20198;-77
2022/12/01 04:50:18;;;;;;;17.83;6.67;;;;;;;1.13;100.00;101448.00;5051611;28;20290;-77
2022/12/01 04:52:43;;;;;;;7.90;5.00;;;;;;;1.13;100.00;101441.81;5052748;28;20646;-76
2022/12/01 04:55:09;;;;;;;6.27;5.80;;;;;;;1.15;100.00;101447.78;5056709;28;20250;-75
2022/12/01 04:57:34;;;;;;;2.23;2.13;;;;;;;1.15;100.00;101450.47;5060831;28;20239;-76
2022/12/01 05:00:00;;;;;;;8.50;7.87;;;;;;;1.13;100.00;101458.78;5053395;28;20581;-75
2022/12/01 05:02:25;;;;;;;32.53;11.37;;;;;;;1.12;100.00;101451.75;5051955;28;20528;-75
2022/12/01 05:04:50;;;;;;;36.90;17.30;;;;;;;1.12;100.00;101453.63;5051344;28;20198;-76
2022/12/01 05:07:17;;;;;;;6.20;3.93;;;;;;;1.13;100.00;101458.78;5050720;28;20439;-75
2022/12/01 05:09:42;;;;;;;3.47;3.17;;;;;;;1.15;100.00;101454.00;5051023;28;20193;-79
2022/12/01 05:12:07;;;;;;;19.10;7.70;;;;;;;1.16;100.00;101457.53;5050761;28;20626;-75
2022/12/01 05:14:33;;;;;;;19.70;6.90;;;;;;;1.16;100.00;101462.91;5051159;28;20179;-76
2022/12/01 05:16:59;;;;;;;13.10;9.23;;;;;;;1.11;100.00;101473.50;5050910;28;20753;-76
2022/12/01 05:22:08;;;;;;;7.13;4.83;;;;;;;1.15;100.00;101480.91;5051715;28;20202;-76
2022/12/01 05:24:34;;;;;;;16.53;6.77;;;;;;;1.13;100.00;101480.31;5051365;28;20211;-77
2022/12/01 05:26:59;;;;;;;11.77;7.30;;;;;;;1.16;100.00;101479.88;5051470;28;20230;-78
2022/12/01 05:29:24;;;;;;;4.57;3.70;;;;;;;1.18;100.00;101480.47;5033485;28;20182;-77
2022/12/01 05:31:49;;;;;;;11.93;10.80;;;;;;;1.19;100.00;101487.50;5051270;28;20179;-76
2022/12/01 05:34:15;;;;;;;7.47;3.50;;;;;;;1.25;100.00;101490.34;5050876;28;20174;-76
2022/12/01 05:36:40;;;;;;;11.83;9.10;;;;;;;1.23;100.00;101490.56;5033211;28;20773;-77
2022/12/01 05:39:06;;;;;;;6.70;5.63;;;;;;;1.22;100.00;101488.91;5032955;28;20179;-78
2022/12/01 05:41:31;;;;;;;13.63;6.90;;;;;;;1.20;100.00;101499.09;5032882;28;20179;-77
2022/12/01 05:43:56;;;;;;;11.63;10.43;;;;;;;1.22;100.00;101494.31;5050547;28;20183;-78
2022/12/01 05:46:22;;;;;;;12.13;7.43;;;;;;;1.22;100.00;101496.16;5050564;28;20238;-77
2022/12/01 05:48:47;;;;;;;43.60;18.57;;;;;;;1.14;100.00;101499.97;5051037;28;20262;-78
2022/12/01 05:51:15;;;;;;;12.07;6.80;;;;;;;1.14;100.00;101498.09;5050716;28;20241;-78
2022/12/01 05:53:40;;;;;;;35.57;14.87;;;;;;;1.10;100.00;101499.59;5050545;28;20182;-78
2022/12/01 05:56:07;;;;;;;2.23;2.13;;;;;;;1.15;100.00;101507.81;5050536;28;20421;-77
2022/12/01 05:58:33;;;;;;;7.83;7.43;;;;;;;1.17;100.00;101503.06;5050555;28;20179;-78
2022/12/01 06:00:59;;;;;;;35.03;14.00;;;;;;;1.10;100.00;101504.16;5050643;28;20622;-77
2022/12/01 06:03:24;;;;;;;65.50;23.43;;;;;;;1.08;100.00;101504.38;5050400;28;20483;-78
2022/12/01 06:05:49;;;;;;;3.93;3.73;;;;;;;1.09;100.00;101514.09;5032472;28;20233;-77
2022/12/01 06:08:15;;;;;;;22.87;9.10;;;;;;;1.10;100.00;101507.66;5050744;28;20194;-77
2022/12/01 06:10:40;;;;;;;15.40;3.37;;;;;;;1.19;100.00;101505.53;5050685;28;20497;-78
2022/12/01 06:13:06;;;;;;;14.37;8.03;;;;;;;1.19;100.00;101513.59;5050173;28;20214;-77
2022/12/01 06:15:31;;;;;;;8.20;4.40;;;;;;;1.15;100.00;101513.19;5032436;28;20217;-77
2022/12/01 06:17:59;;;;;;;15.17;8.33;;;;;;;1.13;100.00;101517.16;5032556;28;20207;-78
2022/12/01 06:20:25;;;;;;;16.40;14.03;;;;;;;1.15;100.00;101513.19;5050460;28;20179;-77
2022/12/01 06:22:50;;;;;;;67.60;25.43;;;;;;;1.12;100.00;101519.03;5050176;28;20174;-77
2022/12/01 06:25:16;;;;;;;51.20;18.20;;;;;;;1.13;100.00;101522.53;5052960;28;20179;-77
2022/12/01 06:27:41;;;;;;;11.93;7.03;;;;;;;1.15;100.00;101532.03;5036244;28;20266;-77
2022/12/01 06:30:07;;;;;;;2.10;2.00;;;;;;;1.17;100.00;101532.66;5053741;28;20179;-77
2022/12/01 06:32:33;;;;;;;8.00;6.23;;;;;;;1.17;100.00;101531.84;5036059;28;20172;-77
2022/12/01 06:34:58;;;;;;;4.97;4.70;;;;;;;1.19;100.00;101533.25;5036142;28;20182;-77
2022/12/01 06:37:23;;;;;;;7.33;4.83;;;;;;;1.23;100.00;101535.50;5054112;28;20178;-77
2022/12/01 06:39:48;;;;;;;3.13;2.03;;;;;;;1.25;100.00;101536.09;5053986;28;20187;-77
2022/12/01 06:42:14;;;;;;;1.70;1.70;;;;;;;1.24;100.00;101540.66;5053956;28;20229;-77
2022/12/01 06:44:39;;;;;;;2.33;2.23;;;;;;;1.26;100.00;101543.13;5053648;28;20179;-77
2022/12/01 06:47:06;;;;;;;24.40;7.53;;;;;;;1.21;100.00;101548.34;5053709;28;20207;-78
2022/12/01 06:49:32;;;;;;;1.20;1.20;;;;;;;1.23;100.00;101540.88;5053972;28;20171;-78
2022/12/01 06:51:57;;;;;;;13.17;8.57;;;;;;;1.22;100.00;101548.13;5053894;28;20191;-78
2022/12/01 06:54:22;;;;;;;5.10;4.13;;;;;;;1.25;100.00;101549.56;5053527;28;20186;-78
2022/12/01 06:56:47;;;;;;;0.00;0.00;;;;;;;1.29;100.00;101553.44;5053676;28;20687;-77
2022/12/01 06:59:13;;;;;;;1.10;1.10;;;;;;;1.25;100.00;101554.94;5053706;28;20175;-78
2022/12/01 07:01:38;;;;;;;7.43;6.33;;;;;;;1.27;100.00;101552.84;5053606;28;20175;-77
2022/12/01 07:04:03;;;;;;;24.63;13.13;;;;;;;1.22;100.00;101550.81;5053308;28;20246;-78
2022/12/01 07:06:30;;;;;;;2.83;2.73;;;;;;;1.28;100.00;101555.31;5053684;28;20218;-77
2022/12/01 07:08:55;;;;;;;5.17;4.77;;;;;;;1.27;100.00;101550.16;5053471;28;20179;-77
2022/12/01 07:11:21;;;;;;;15.70;5.63;;;;;;;1.25;100.00;101552.25;5053801;28;20521;-77
2022/12/01 07:13:48;;;;;;;7.20;6.40;;;;;;;1.17;100.00;101556.88;5035166;28;20191;-78
2022/12/01 07:16:14;;;;;;;9.27;8.00;;;;;;;1.14;100.00;101559.16;5035300;28;20171;-81
2022/12/01 07:18:39;;;;;;;19.43;8.30;;;;;;;1.18;100.00;101561.22;5035775;28;20253;-80
2022/12/01 07:21:11;;;;;;;19.37;8.30;;;;;;;1.12;100.00;101550.50;5053259;28;20638;-79
2022/12/01 07:23:37;;;;;;;3.47;3.33;;;;;;;1.19;100.00;101554.78;5053106;28;20222;-80
2022/12/01 07:26:09;;;;;;;11.97;6.40;;;;;;;1.14;100.00;101560.00;5035090;28;20670;-78
2022/12/01 07:28:35;;;;;;;1.47;1.47;;;;;;;1.15;100.00;101556.25;5052930;28;20183;-78
2022/12/01 07:31:08;;;;;;;11.33;4.63;;;;;;;1.16;100.00;101557.94;5053398;28;20171;-77
2022/12/01 07:33:34;;;;;;;1.50;1.13;;;;;;;1.16;100.00;101557.94;5052901;28;20178;-78
2022/12/01 07:36:00;;;;;;;1.33;1.23;;;;;;;1.22;100.00;101555.38;5034778;28;20219;-77
2022/12/01 07:38:32;;;;;;;7.77;4.83;;;;;;;1.31;100.00;101567.53;5034948;28;20262;-78
2022/12/01 07:41:20;;;;;;;38.73;11.97;;;;;;;1.18;100.00;101557.72;5035028;28;20645;-77
2022/12/01 07:43:47;;;;;;;18.13;7.40;;;;;;;1.19;100.00;101562.03;5052887;28;20353;-78
2022/12/01 07:46:18;;;;;;;2.77;2.67;;;;;;;1.23;100.00;101565.94;5034666;28;20696;-77
2022/12/01 07:48:43;;;;;;;4.37;2.27;;;;;;;1.23;100.00;101565.09;5052779;28;20171;-77
2022/12/01 07:51:12;;;;;;;7.73;6.60;;;;;;;1.23;100.00;101565.94;5053125;28;20254;-77
2022/12/01 07:53:38;;;;;;;19.47;9.20;;;;;;;1.15;100.00;101571.59;5052544;28;20641;-78
2022/12/01 07:56:04;;;;;;;53.43;22.17;;;;;;;1.10;100.00;101576.81;5052705;28;20229;-77
2022/12/01 07:58:30;;;;;;;15.80;14.30;;;;;;;1.11;100.00;101575.75;5052532;28;20226;-77
2022/12/01 08:00:56;;;;;;;28.40;13.27;;;;;;;1.09;100.00;101572.47;5053126;28;20181;-77
2022/12/01 08:03:21;;;;;;;24.47;10.73;;;;;;;1.10;100.00;101574.94;5052277;28;20172;-77
2022/12/01 08:05:59;;;;;;;2.57;1.87;;;;;;;1.06;100.00;101572.94;5052239;28;20199;-77
2022/12/01 08:08:25;;;;;;;20.60;2.27;;;;;;;1.09;100.00;101575.16;5055952;28;20241;-78
2022/12/01 08:10:52;;;;;;;3.83;1.53;;;;;;;1.15;100.00;101579.66;5034394;28;20410;-78
2022/12/01 08:13:18;;;;;;;9.03;4.87;;;;;;;1.10;100.00;101579.50;5034165;28;20281;-78
2022/12/01 08:15:43;;;;;;;8.57;5.80;;;;;;;1.13;100.00;101585.25;5052530;28;20175;-77
2022/12/01 08:18:08;;;;;;;1.67;1.67;;;;;;;1.16;100.00;101590.22;5052355;28;20186;-78
2022/12/01 08:20:34;;;;;;;22.77;13.73;;;;;;;1.12;100.00;101591.69;5052169;28;20206;-77
2022/12/01 08:23:00;;;;;;;6.30;5.67;;;;;;;1.10;100.00;101583.00;5051938;28;20218;-77
2022/12/01 08:25:26;;;;;;;41.17;16.30;;;;;;;1.11;100.00;101578.47;5034090;28;20183;-78
2022/12/01 08:27:51;;;;;;;6.23;3.70;;;;;;;1.12;100.00;101580.91;5052015;28;20471;-78
2022/12/01 08:30:17;;;;;;;6.60;4.53;;;;;;;1.10;100.00;101583.00;5051512;28;20544;-78
2022/12/01 08:32:42;;;;;;;42.67;18.27;;;;;;;1.06;100.00;101587.19;5033903;28;20179;-77
2022/12/01 08:35:08;;;;;;;1.30;1.27;;;;;;;1.12;100.00;101591.69;5052287;28;20534;-79
2022/12/01 08:37:33;;;;;;;30.63;5.50;;;;;;;1.13;100.00;101585.25;5033805;28;20270;-82
2022/12/01 08:39:58;;;;;;;6.00;5.40;;;;;;;1.18;100.00;101584.63;5051974;28;20202;-77
2022/12/01 08:42:23;;;;;;;30.80;9.67;;;;;;;1.14;100.00;101586.91;5051611;28;20179;-77
2022/12/01 08:44:49;;;;;;;21.83;7.03;;;;;;;1.11;100.00;101586.53;5051666;28;20237;-76
2022/12/01 08:47:14;;;;;;;58.70;19.50;;;;;;;1.08;100.00;101576.22;5051045;28;20199;-76
2022/12/01 08:49:39;;;;;;;22.10;6.43;;;;;;;1.09;100.00;101588.63;5033690;28;20217;-76
2022/12/01 08:52:04;;;;;;;4.43;4.23;;;;;;;1.10;100.00;101588.41;5051809;28;20179;-75
2022/12/01 08:54:30;;;;;;;2.63;2.43;;;;;;;1.15;100.00;101593.09;5051020;28;20182;-76
2022/12/01 08:56:55;;;;;;;5.07;4.57;;;;;;;1.18;100.00;101590.81;5051453;28;20179;-75
2022/12/01 08:59:20;;;;;;;86.90;13.63;;;;;;;1.16;100.00;101592.91;5051505;28;20175;-76
2022/12/01 09:01:51;;;;;;;5.37;4.93;;;;;;;1.11;100.00;101599.97;5051642;28;20383;-79
2022/12/01 09:04:19;;;;;;;14.90;10.33;;;;;;;1.12;100.00;101602.44;5051141;28;20163;-78
2022/12/01 09:06:46;;;;;;;28.50;11.93;;;;;;;1.15;100.00;101607.38;5051101;28;20469;-78
2022/12/01 09:09:15;;;;;;;18.53;5.00;;;;;;;1.16;100.00;101606.38;5051291;28;20174;-77
2022/12/01 09:11:42;;;;;;;40.13;14.40;;;;;;;1.12;100.00;101605.16;5051425;28;20421;-77
2022/12/01 09:14:08;;;;;;;6.03;5.20;;;;;;;1.17;100.00;101604.50;5051006;28;20234;-78
2022/12/01 09:16:33;;;;;;;23.03;7.03;;;;;;;1.24;100.00;101602.56;5050928;28;20204;-78
2022/12/01 09:18:58;;;;;;;12.20;3.60;;;;;;;1.21;100.00;101594.94;5051226;28;20203;-78
2022/12/01 09:21:29;;;;;;;43.90;19.70;;;;;;;1.20;100.00;101606.75;5050975;28;20225;-78
2022/12/01 09:23:54;;;;;;;8.70;5.60;;;;;;;1.17;100.00;101602.63;5050963;28;20159;-77
2022/12/01 09:26:19;;;;;;;3.20;3.13;;;;;;;1.26;100.00;101607.72;5050701;28;20695;-77
2022/12/01 09:28:46;;;;;;;0.10;0.10;;;;;;;1.28;100.00;101605.63;5051228;28;20171;-78
2022/12/01 09:31:12;;;;;;;42.20;9.87;;;;;;;1.26;100.00;101607.72;5032984;28;20442;-77
2022/12/01 09:33:38;;;;;;;39.37;14.17;;;;;;;1.25;100.00;101609.59;5050557;28;20183;-77
2022/12/01 09:36:05;;;;;;;6.13;3.37;;;;;;;1.22;100.00;101612.72;5050757;28;20187;-76
2022/12/01 09:38:32;;;;;;;1.50;1.50;;;;;;;1.22;100.00;101614.59;5032999;28;20695;-77
2022/12/01 09:41:23;;;;;;;4.37;4.07;;;;;;;1.23;100.00;101605.47;5050961;28;20175;-78
2022/12/01 09:44:34;;;;;;;0.33;0.33;;;;;;;1.29;100.00;101609.97;5050580;28;20206;-77
2022/12/01 09:47:17;;;;;;;3.40;3.10;;;;;;;1.23;100.00;101600.91;5046061;28;20955;-78
2022/12/01 09:49:59;;;;;;;3.40;3.10;;;;;;;1.23;100.00;101608.16;5050690;28;20498;-77
2022/12/01 09:52:27;;;;;;;17.77;4.03;;;;;;;1.22;100.00;101598.44;5050654;28;20182;-78
2022/12/01 09:54:54;;;;;;;9.93;6.13;;;;;;;1.27;100.00;101601.28;5050476;28;20176;-78
2022/12/01 09:57:35;;;;;;;18.67;6.67;;;;;;;1.26;100.00;101600.47;5033004;28;20214;-80
2022/12/01 10:00:13;;;;;;;11.07;5.53;;;;;;;1.28;100.00;101594.88;5060647;28;20182;-79
2022/12/01 10:02:51;;;;;;;4.23;3.93;;;;;;;1.26;100.00;101586.19;5062338;28;20167;-78
2022/12/01 10:05:22;;;;;;;7.43;6.23;;;;;;;1.30;100.00;101584.69;5064904;28;20189;-79
2022/12/01 10:07:55;;;;;;;35.97;6.43;;;;;;;1.28;100.00;101586.78;5064067;28;20456;-79
2022/12/01 10:10:33;;;;;;;24.90;10.50;;;;;;;1.25;100.00;101587.22;5062048;28;20175;-80
2022/12/01 10:12:59;;;;;;;76.87;20.57;;;;;;;1.19;100.00;101584.41;5064773;28;20748;-80
2022/12/01 10:16:06;;;;;;;21.83;10.60;;;;;;;1.21;100.00;101584.16;5065046;28;20170;-78
2022/12/01 10:18:58;;;;;;;16.23;4.13;;;;;;;1.26;100.00;101584.31;5073747;28;20205;-80
2022/12/01 10:21:35;;;;;;;14.33;7.73;;;;;;;1.28;100.00;101586.78;5065438;28;20635;-80
2022/12/01 10:24:07;;;;;;;3.40;3.17;;;;;;;1.31;100.00;101587.19;5061984;28;20228;-80
2022/12/01 10:26:46;;;;;;;11.70;4.27;;;;;;;1.35;100.00;101588.38;5062573;28;20811;-77
2022/12/01 10:29:27;;;;;;;4.13;3.93;;;;;;;1.43;100.00;101585.38;5041667;28;20240;-81
2022/12/01 10:32:00;;;;;;;7.53;5.80;;;;;;;1.42;100.00;101588.31;5057262;28;20178;-80
2022/12/01 10:34:30;;;;;;;2.93;2.47;;;;;;;1.46;100.00;101590.34;5053519;28;20199;-80
2022/12/01 10:36:59;;;;;;;2.00;1.93;;;;;;;1.50;100.00;101598.81;5053865;28;20427;-80
2022/12/01 10:39:30;;;;;;;2.27;2.07;;;;;;;1.50;100.00;101590.72;5053923;28;20638;-82
2022/12/01 10:42:03;;;;;;;4.40;4.10;;;;;;;1.51;100.00;101589.69;5054004;28;20170;-81
2022/12/01 10:44:28;;;;;;;3.40;3.30;;;;;;;1.55;100.00;101581.97;5053661;28;20176;-80
2022/12/01 10:46:55;;;;;;;0.10;0.10;;;;;;;1.55;100.00;101590.88;5035586;28;20209;-81
2022/12/01 10:49:39;;;;;;;10.87;4.90;;;;;;;1.44;100.00;101586.22;5053913;28;20236;-80
2022/12/01 10:52:26;;;;;;;0.37;0.37;;;;;;;1.47;100.00;101581.22;5053698;28;20164;-80
2022/12/01 10:54:52;;;;;;;1.17;1.13;;;;;;;1.50;100.00;101582.66;5053244;28;20692;-79
2022/12/01 10:57:17;;;;;;;0.70;0.70;;;;;;;1.52;100.00;101585.13;5053699;28;20207;-79
2022/12/01 10:59:57;;;;;;;12.13;11.00;;;;;;;1.52;100.00;101577.03;5053661;28;20175;-80
2022/12/01 11:02:28;;;;;;;0.53;0.53;;;;;;;1.54;100.00;101581.13;5053444;28;20172;-79
2022/12/01 11:05:23;;;;;;;9.13;2.37;;;;;;;1.61;100.00;101583.78;5053789;28;20588;-80
2022/12/01 11:07:49;;;;;;;2.80;2.70;;;;;;;1.61;100.00;101578.41;5053436;28;20608;-78
2022/12/01 11:10:20;;;;;;;1.10;1.10;;;;;;;1.53;100.00;101578.69;5053011;28;20262;-79
2022/12/01 11:12:54;;;;;;;7.40;5.03;;;;;;;1.49;100.00;101578.31;5053422;28;20274;-79
2022/12/01 11:15:24;;;;;;;2.40;2.17;;;;;;;1.57;100.00;101580.69;5053957;28;20206;-78
2022/12/01 11:17:57;;;;;;;11.30;5.43;;;;;;;1.50;100.00;101577.25;5053673;28;20648;-77
2022/12/01 11:20:35;;;;;;;0.63;0.63;;;;;;;1.59;100.00;101581.31;5053360;28;20214;-78
2022/12/01 11:23:23;;;;;;;3.80;3.50;;;;;;;1.61;100.00;101578.41;5053099;28;20170;-78
2022/12/01 11:26:10;;;;;;;1.17;1.17;;;;;;;1.62;100.00;101570.09;5035416;28;20272;-79
2022/12/01 11:28:41;;;;;;;1.37;0.87;;;;;;;1.60;100.00;101571.38;5053814;28;20232;-80
2022/12/01 11:31:10;;;;;;;3.97;3.57;;;;;;;1.54;100.00;101575.75;5053039;28;20179;-78
2022/12/01 11:33:53;;;;;;;4.73;1.60;;;;;;;1.68;100.00;101571.88;5053187;28;20179;-79
2022/12/01 11:36:45;;;;;;;0.07;0.07;;;;;;;1.61;100.00;101571.13;5053424;28;20197;-78